Time;durP1;ratioP1;P1;durP2;ratioP2;P2;SDS_P1;SDS_P2;PMS_P1;PMS_P2;Temp;Humidity;BMP_temperature;BMP_pressure;BME280_temperature;BME280_humidity;BME280_pressure;Samples;Min_cycle;Max_cycle;Signal;HPM_P1;HPM_P2
2022/12/25 05:01:03;;;;;;;3.55;2.90;;;4.50;99.90;;;;;;5590442;23;20238;-65
2022/12/25 05:03:30;;;;;;;2.40;1.92;;;4.50;99.90;;;;;;4903754;29;20203;-66
2022/12/25 05:05:57;;;;;;;2.75;2.53;;;4.50;99.90;;;;;;4915125;29;20271;-66
2022/12/25 05:08:23;;;;;;;5.43;4.88;;;4.50;99.90;;;;;;4912372;29;20351;-66
2022/12/25 05:10:50;;;;;;;2.88;2.03;;;4.60;99.90;;;;;;4907398;29;20220;-66
2022/12/25 05:13:17;;;;;;;1.80;1.40;;;4.60;99.90;;;;;;4900244;29;20218;-65
2022/12/25 05:15:44;;;;;;;3.00;2.80;;;4.60;99.90;;;;;;4896188;29;20208;-66
2022/12/25 05:18:12;;;;;;;4.00;1.48;;;4.70;99.90;;;;;;4893742;29;20216;-66
2022/12/25 05:20:38;;;;;;;2.85;2.20;;;4.70;99.90;;;;;;4895903;29;20298;-66
2022/12/25 05:23:05;;;;;;;3.00;2.30;;;4.70;99.90;;;;;;4894838;29;20208;-68
2022/12/25 05:25:32;;;;;;;11.40;3.65;;;4.70;99.90;;;;;;4891846;29;20270;-68
2022/12/25 05:27:59;;;;;;;5.68;3.05;;;4.60;99.90;;;;;;4887941;29;20223;-67
2022/12/25 05:30:25;;;;;;;8.35;4.40;;;4.70;99.90;;;;;;4888577;29;20579;-67
2022/12/25 05:32:52;;;;;;;4.68;4.18;;;4.70;99.90;;;;;;4895312;29;20212;-67
2022/12/25 05:35:20;;;;;;;6.80;3.65;;;4.70;99.90;;;;;;4894151;29;20270;-67
2022/12/25 05:37:47;;;;;;;2.67;1.45;;;4.70;99.90;;;;;;4896482;29;20636;-67
2022/12/25 05:40:13;;;;;;;5.38;2.72;;;4.70;99.90;;;;;;4894526;29;20211;-67
2022/12/25 05:42:40;;;;;;;7.72;3.47;;;4.70;99.90;;;;;;4891091;29;20212;-66
2022/12/25 05:45:08;;;;;;;13.80;6.20;;;4.80;99.90;;;;;;4893974;29;20217;-67
2022/12/25 05:47:34;;;;;;;2.42;2.33;;;4.80;99.90;;;;;;4894996;29;20208;-67
2022/12/25 05:50:01;;;;;;;4.80;4.15;;;4.80;99.90;;;;;;4895607;29;20208;-68
2022/12/25 05:52:32;;;;;;;8.23;7.40;;;4.80;99.90;;;;;;4890432;29;20609;-68
2022/12/25 05:54:59;;;;;;;5.07;2.30;;;4.80;99.90;;;;;;4888740;29;20237;-68
2022/12/25 05:57:28;;;;;;;7.07;4.72;;;4.80;99.90;;;;;;4883014;29;20584;-68
2022/12/25 05:59:55;;;;;;;4.32;2.22;;;4.80;99.90;;;;;;4894597;29;20295;-68
2022/12/25 06:02:21;;;;;;;3.88;3.50;;;4.80;99.90;;;;;;4890048;29;20270;-68
2022/12/25 06:04:48;;;;;;;2.53;2.30;;;4.80;99.90;;;;;;4893930;29;20312;-68
2022/12/25 06:07:15;;;;;;;2.95;2.75;;;4.90;99.90;;;;;;4892742;29;20214;-67
2022/12/25 06:09:43;;;;;;;5.38;3.20;;;4.90;99.90;;;;;;4895961;29;20212;-68
2022/12/25 06:12:10;;;;;;;4.47;4.10;;;4.90;99.90;;;;;;4901396;29;20283;-68
2022/12/25 06:14:36;;;;;;;8.43;2.20;;;4.90;99.90;;;;;;4896953;29;20292;-68
2022/12/25 06:17:03;;;;;;;2.67;2.58;;;4.90;99.90;;;;;;4895416;29;20209;-68
2022/12/25 06:19:30;;;;;;;3.80;2.58;;;4.90;99.90;;;;;;4893732;29;20881;-68
2022/12/25 06:21:56;;;;;;;3.45;3.13;;;4.90;99.90;;;;;;4890818;29;20235;-66
2022/12/25 06:24:24;;;;;;;4.25;2.90;;;4.90;99.90;;;;;;4886805;29;20208;-67
2022/12/25 06:26:52;;;;;;;8.20;2.72;;;4.90;99.90;;;;;;4894962;29;20267;-67
2022/12/25 06:29:19;;;;;;;4.28;3.17;;;4.90;99.90;;;;;;4894544;29;20275;-67
2022/12/25 06:31:45;;;;;;;3.65;3.33;;;4.90;99.90;;;;;;4884219;29;20233;-67
2022/12/25 06:34:15;;;;;;;3.03;2.83;;;4.90;99.90;;;;;;4896174;29;20295;-68
2022/12/25 06:36:42;;;;;;;2.85;2.75;;;4.90;99.90;;;;;;4889546;29;20213;-68
2022/12/25 06:39:09;;;;;;;4.50;2.65;;;5.00;99.90;;;;;;4892978;29;20208;-67
2022/12/25 06:41:36;;;;;;;2.17;1.95;;;5.00;99.90;;;;;;4890910;29;20232;-67
2022/12/25 06:44:05;;;;;;;2.08;1.98;;;5.00;99.90;;;;;;4892962;29;20207;-68
2022/12/25 06:46:32;;;;;;;4.88;2.15;;;5.00;99.90;;;;;;4892238;29;20242;-66
2022/12/25 06:48:59;;;;;;;10.50;3.35;;;4.90;99.90;;;;;;4891147;29;20677;-68
2022/12/25 06:51:28;;;;;;;3.60;3.30;;;4.90;99.90;;;;;;4889821;29;20611;-67
2022/12/25 06:53:55;;;;;;;3.10;2.90;;;4.90;99.90;;;;;;4892622;29;20760;-67
2022/12/25 06:56:24;;;;;;;2.08;1.55;;;5.00;99.90;;;;;;4894662;29;20680;-67
2022/12/25 06:58:53;;;;;;;2.78;2.58;;;5.00;99.90;;;;;;4884237;29;20230;-67
2022/12/25 07:01:24;;;;;;;2.75;2.55;;;5.00;99.90;;;;;;4887821;29;20325;-67
2022/12/25 07:03:54;;;;;;;2.13;2.03;;;5.00;99.90;;;;;;4892048;29;20595;-67
2022/12/25 07:06:21;;;;;;;3.78;3.38;;;5.00;99.90;;;;;;4890088;29;20283;-66
2022/12/25 07:08:48;;;;;;;11.10;2.90;;;5.00;99.90;;;;;;4897772;29;20221;-66
2022/12/25 07:11:15;;;;;;;8.27;2.53;;;5.00;99.90;;;;;;4897264;29;20600;-66
2022/12/25 07:13:42;;;;;;;2.38;2.28;;;5.00;99.90;;;;;;4892073;29;20756;-67
2022/12/25 07:16:10;;;;;;;4.63;2.45;;;5.00;99.90;;;;;;4897058;29;20259;-67
2022/12/25 07:18:39;;;;;;;4.43;2.83;;;5.00;99.90;;;;;;4893109;29;20220;-67
2022/12/25 07:21:07;;;;;;;3.92;3.65;;;4.90;99.90;;;;;;4897147;29;20231;-68
2022/12/25 07:23:33;;;;;;;1.98;1.80;;;4.90;99.90;;;;;;4894104;29;20208;-68
2022/12/25 07:26:01;;;;;;;2.25;2.25;;;4.90;99.90;;;;;;4899055;29;20307;-67
2022/12/25 07:28:28;;;;;;;3.33;2.50;;;4.90;99.90;;;;;;4896765;29;20213;-67
2022/12/25 07:30:55;;;;;;;7.20;2.92;;;4.90;99.90;;;;;;4898005;29;20224;-65
2022/12/25 07:33:21;;;;;;;4.15;3.42;;;4.80;99.90;;;;;;4897118;29;20215;-68
2022/12/25 07:35:49;;;;;;;9.27;3.15;;;4.90;99.90;;;;;;4900699;29;20228;-67
2022/12/25 07:38:16;;;;;;;8.65;3.38;;;4.90;99.90;;;;;;4889503;29;20209;-66
2022/12/25 07:40:45;;;;;;;6.05;2.53;;;4.90;99.90;;;;;;4892145;29;20231;-67
2022/12/25 07:43:11;;;;;;;3.70;2.30;;;4.90;99.90;;;;;;4898808;29;20237;-67
2022/12/25 07:45:38;;;;;;;4.00;2.00;;;4.90;99.90;;;;;;4897828;29;20203;-68
2022/12/25 07:48:06;;;;;;;6.13;3.92;;;4.90;99.90;;;;;;4894754;29;20221;-67
2022/12/25 07:50:32;;;;;;;9.05;2.38;;;5.00;99.90;;;;;;4889892;29;20236;-65
2022/12/25 07:53:00;;;;;;;5.43;3.67;;;5.10;99.90;;;;;;4893567;29;20242;-66
2022/12/25 07:55:27;;;;;;;1.83;1.45;;;5.10;99.90;;;;;;4899344;29;20228;-67
2022/12/25 07:57:54;;;;;;;15.05;5.45;;;5.10;99.90;;;;;;4895971;29;20213;-68
2022/12/25 08:00:21;;;;;;;2.63;2.47;;;5.10;99.90;;;;;;4897930;29;20204;-68
2022/12/25 08:02:49;;;;;;;3.00;2.83;;;5.10;99.90;;;;;;4898990;29;20204;-66
2022/12/25 08:05:16;;;;;;;3.30;3.00;;;5.10;99.90;;;;;;4894194;29;20295;-66
2022/12/25 08:07:42;;;;;;;2.47;2.25;;;5.10;99.90;;;;;;4885703;29;20235;-67
2022/12/25 08:10:14;;;;;;;11.57;3.55;;;5.10;99.90;;;;;;4895585;29;20697;-68
2022/12/25 08:12:40;;;;;;;17.15;3.75;;;5.20;99.90;;;;;;4894467;29;20235;-67
2022/12/25 08:15:08;;;;;;;4.07;3.88;;;5.20;99.90;;;;;;4888291;29;20232;-68
2022/12/25 08:17:35;;;;;;;2.78;2.65;;;5.30;99.90;;;;;;4888752;29;20560;-68
2022/12/25 08:20:01;;;;;;;2.08;1.98;;;5.30;99.90;;;;;;4885570;29;20329;-68
2022/12/25 08:22:28;;;;;;;3.22;1.95;;;5.30;99.90;;;;;;4893454;29;20232;-67
2022/12/25 08:24:55;;;;;;;2.08;2.08;;;5.40;99.90;;;;;;4889536;29;20309;-68
2022/12/25 08:27:23;;;;;;;3.85;3.47;;;5.40;99.90;;;;;;4897926;29;20240;-68
2022/12/25 08:29:49;;;;;;;9.23;3.33;;;5.50;99.90;;;;;;4886885;29;20212;-68
2022/12/25 08:32:16;;;;;;;1.90;1.90;;;5.50;99.90;;;;;;4887110;29;20229;-67
2022/12/25 08:34:43;;;;;;;5.38;3.90;;;5.50;99.90;;;;;;4890964;29;20240;-65
2022/12/25 08:37:10;;;;;;;4.35;4.07;;;5.50;99.90;;;;;;4888595;29;20213;-68
2022/12/25 08:39:36;;;;;;;2.78;2.45;;;5.50;99.90;;;;;;4888177;29;20643;-68
2022/12/25 08:42:03;;;;;;;3.08;2.10;;;5.50;99.90;;;;;;4893659;29;20653;-67
2022/12/25 08:44:31;;;;;;;3.90;3.55;;;5.60;99.90;;;;;;4887630;29;20739;-67
2022/12/25 08:46:58;;;;;;;2.28;1.98;;;5.60;99.90;;;;;;4892240;29;20209;-67
2022/12/25 08:49:26;;;;;;;2.08;1.92;;;5.70;99.90;;;;;;4886491;29;20305;-67
2022/12/25 08:51:53;;;;;;;4.90;2.63;;;5.80;99.90;;;;;;4894890;29;20323;-68
2022/12/25 08:54:19;;;;;;;3.50;3.00;;;5.80;99.90;;;;;;4895787;29;20225;-67
2022/12/25 08:56:46;;;;;;;2.53;2.47;;;5.90;99.90;;;;;;4895234;29;22479;-68
2022/12/25 08:59:13;;;;;;;7.70;3.03;;;5.90;99.90;;;;;;4888754;29;20240;-66
2022/12/25 09:01:41;;;;;;;1.80;1.70;;;5.90;99.90;;;;;;4901418;29;20244;-67
2022/12/25 09:04:07;;;;;;;2.78;2.78;;;5.90;99.90;;;;;;4897154;29;20204;-67
2022/12/25 09:06:34;;;;;;;3.75;3.58;;;5.90;99.90;;;;;;4894293;29;20537;-68
2022/12/25 09:09:01;;;;;;;20.88;5.70;;;5.90;99.90;;;;;;4894632;29;20273;-68
2022/12/25 09:11:28;;;;;;;1.65;1.52;;;6.00;99.90;;;;;;4893979;29;20284;-68
2022/12/25 09:13:54;;;;;;;3.47;3.28;;;6.00;99.90;;;;;;4902322;29;20219;-68
2022/12/25 09:16:22;;;;;;;7.55;2.78;;;6.10;99.90;;;;;;4906213;29;20272;-68
2022/12/25 09:18:50;;;;;;;5.03;2.25;;;6.10;99.90;;;;;;4892801;29;20321;-68
2022/12/25 09:21:18;;;;;;;3.95;1.67;;;6.10;99.90;;;;;;4894759;29;20332;-68
2022/12/25 09:23:45;;;;;;;9.77;4.25;;;6.10;99.90;;;;;;4896114;29;20667;-67
2022/12/25 09:26:14;;;;;;;3.33;2.65;;;6.10;99.90;;;;;;4896941;29;20210;-67
2022/12/25 09:28:40;;;;;;;3.20;3.00;;;6.10;99.90;;;;;;4892787;29;20210;-68
2022/12/25 09:31:07;;;;;;;3.67;2.08;;;6.20;99.90;;;;;;4893050;29;20244;-68
2022/12/25 09:33:34;;;;;;;17.90;3.42;;;6.20;99.90;;;;;;4915201;29;20220;-66
2022/12/25 09:36:04;;;;;;;3.50;3.25;;;6.20;99.90;;;;;;4892918;29;20695;-66
2022/12/25 09:38:32;;;;;;;3.08;2.85;;;6.30;99.90;;;;;;4884363;29;20271;-65
2022/12/25 09:41:00;;;;;;;11.57;4.60;;;6.30;99.90;;;;;;4887004;29;20241;-66
2022/12/25 09:43:28;;;;;;;11.52;3.75;;;6.30;99.90;;;;;;4886925;29;20204;-66
2022/12/25 09:45:57;;;;;;;4.00;3.33;;;6.30;99.90;;;;;;4895883;29;20213;-65
2022/12/25 09:48:27;;;;;;;6.05;3.20;;;6.40;99.90;;;;;;4898189;29;20256;-66
2022/12/25 09:51:00;;;;;;;4.50;4.10;;;6.40;99.90;;;;;;4898718;29;20240;-66
2022/12/25 09:53:33;;;;;;;4.50;2.45;;;6.50;99.90;;;;;;4894453;29;20661;-65
2022/12/25 09:56:04;;;;;;;3.80;3.15;;;6.50;99.90;;;;;;4895455;29;20309;-66
2022/12/25 09:58:33;;;;;;;6.85;2.90;;;6.50;99.90;;;;;;4896742;29;20206;-66
2022/12/25 10:01:05;;;;;;;4.18;3.83;;;6.50;99.90;;;;;;4892556;29;20234;-67
2022/12/25 10:03:52;;;;;;;13.65;5.65;;;6.50;99.90;;;;;;4897394;29;20231;-66
2022/12/25 10:06:22;;;;;;;3.60;3.25;;;6.60;99.90;;;;;;4893134;29;20213;-67
2022/12/25 10:09:21;;;;;;;5.35;3.00;;;6.60;99.90;;;;;;4894222;29;20287;-66
2022/12/25 10:12:06;;;;;;;17.55;3.67;;;6.60;99.90;;;;;;4884987;29;20228;-67
2022/12/25 10:14:41;;;;;;;3.38;3.22;;;6.60;99.90;;;;;;4898201;29;20209;-66
2022/12/25 10:17:26;;;;;;;4.35;3.50;;;6.60;99.90;;;;;;4901221;29;20211;-67
2022/12/25 10:19:59;;;;;;;5.07;2.30;;;6.60;99.90;;;;;;4912755;29;20229;-67
2022/12/25 10:22:32;;;;;;;2.88;2.78;;;6.60;99.90;;;;;;4896465;29;20225;-67
2022/12/25 10:25:02;;;;;;;2.15;2.05;;;6.70;99.90;;;;;;4896608;29;20235;-67
2022/12/25 10:27:32;;;;;;;2.28;2.13;;;6.70;99.90;;;;;;4895040;29;20284;-66
2022/12/25 10:29:59;;;;;;;6.70;2.35;;;6.70;99.90;;;;;;4900006;29;20622;-67
2022/12/25 10:32:26;;;;;;;4.68;3.38;;;6.70;99.90;;;;;;4890941;29;20276;-67
2022/12/25 10:34:53;;;;;;;3.30;3.10;;;6.70;99.90;;;;;;4895776;29;20221;-67
2022/12/25 10:37:20;;;;;;;2.70;2.60;;;6.80;99.90;;;;;;4899107;29;20217;-67
2022/12/25 10:39:47;;;;;;;3.58;3.28;;;6.80;99.90;;;;;;4890885;29;20296;-67
2022/12/25 10:42:37;;;;;;;5.10;4.32;;;6.80;99.90;;;;;;4890937;29;20245;-67
2022/12/25 10:45:07;;;;;;;14.20;3.35;;;6.90;99.90;;;;;;4887019;29;20265;-66
2022/12/25 10:47:37;;;;;;;15.50;3.38;;;6.90;99.90;;;;;;4894627;29;20241;-66
2022/12/25 10:50:10;;;;;;;2.15;2.05;;;6.90;99.90;;;;;;4891703;29;20300;-67
2022/12/25 10:52:50;;;;;;;3.65;3.35;;;6.90;99.90;;;;;;4890675;29;20288;-65
2022/12/25 10:55:19;;;;;;;4.38;2.75;;;7.00;99.90;;;;;;4890999;29;20260;-67
2022/12/25 10:57:48;;;;;;;6.50;3.35;;;7.00;99.90;;;;;;4895070;29;20222;-67
2022/12/25 11:00:21;;;;;;;5.38;2.40;;;7.00;99.90;;;;;;4897087;29;20723;-66
2022/12/25 11:02:48;;;;;;;7.15;4.78;;;7.00;99.90;;;;;;4893937;29;20217;-67
2022/12/25 11:05:28;;;;;;;10.70;7.60;;;7.10;99.90;;;;;;4896470;29;20266;-67
2022/12/25 11:07:55;;;;;;;10.02;5.32;;;7.10;99.90;;;;;;4891796;29;20217;-66
2022/12/25 11:10:25;;;;;;;4.10;3.67;;;7.20;99.90;;;;;;4892941;29;20222;-65
2022/12/25 11:12:54;;;;;;;7.20;3.78;;;7.20;99.90;;;;;;4901546;29;20282;-67
2022/12/25 11:15:40;;;;;;;7.22;3.78;;;7.20;99.90;;;;;;4888610;29;20233;-65
2022/12/25 11:18:19;;;;;;;10.77;4.05;;;7.10;99.90;;;;;;4898776;29;20594;-66
2022/12/25 11:20:50;;;;;;;2.58;2.35;;;7.20;99.90;;;;;;4897543;29;20317;-67
2022/12/25 11:23:19;;;;;;;3.25;3.05;;;7.20;99.90;;;;;;4897869;29;20661;-64
2022/12/25 11:25:55;;;;;;;13.27;6.38;;;7.20;99.90;;;;;;4898508;29;20216;-67
2022/12/25 11:28:24;;;;;;;14.60;8.73;;;7.20;99.90;;;;;;4899013;29;20214;-67
2022/12/25 11:30:56;;;;;;;11.20;6.70;;;7.20;99.90;;;;;;4898592;29;20735;-65
2022/12/25 11:33:28;;;;;;;15.85;14.48;;;7.20;99.90;;;;;;4898691;29;20679;-66
2022/12/25 11:35:57;;;;;;;11.13;6.28;;;7.20;99.90;;;;;;4896582;29;20294;-67
2022/12/25 11:38:27;;;;;;;5.43;4.93;;;7.20;99.90;;;;;;4891161;29;20209;-67
2022/12/25 11:40:57;;;;;;;6.60;6.03;;;7.20;99.90;;;;;;4898275;29;20285;-67
2022/12/25 11:43:32;;;;;;;8.18;5.40;;;7.20;99.90;;;;;;4896056;29;20296;-68
2022/12/25 11:46:10;;;;;;;9.32;4.90;;;7.20;99.90;;;;;;4898143;29;20224;-67
2022/12/25 11:48:41;;;;;;;9.50;4.95;;;7.20;99.90;;;;;;4898282;29;20268;-67
2022/12/25 11:51:10;;;;;;;6.68;2.72;;;7.20;99.90;;;;;;4896221;29;20237;-67
2022/12/25 11:53:41;;;;;;;5.72;2.58;;;7.20;99.90;;;;;;4895803;29;20242;-67
2022/12/25 11:56:10;;;;;;;5.35;3.60;;;7.20;99.90;;;;;;4897895;29;20597;-66
2022/12/25 11:58:43;;;;;;;3.25;3.00;;;7.20;99.90;;;;;;4898237;29;20208;-67
2022/12/25 12:01:18;;;;;;;6.00;3.83;;;7.20;99.90;;;;;;4897935;29;20316;-66
2022/12/25 12:03:45;;;;;;;4.20;3.90;;;7.20;99.90;;;;;;4897869;29;20272;-67
2022/12/25 12:06:18;;;;;;;11.55;3.60;;;7.30;99.90;;;;;;4889218;29;20221;-67
2022/12/25 12:08:46;;;;;;;7.38;4.63;;;7.20;99.90;;;;;;4897774;29;20210;-67
2022/12/25 12:11:18;;;;;;;4.30;2.78;;;7.30;99.90;;;;;;4897428;29;20230;-67
2022/12/25 12:14:03;;;;;;;13.27;4.95;;;7.30;99.90;;;;;;4897854;29;20300;-66
2022/12/25 12:16:30;;;;;;;9.82;3.03;;;7.30;99.90;;;;;;4897557;29;20240;-66
2022/12/25 12:18:57;;;;;;;3.67;3.50;;;7.30;99.90;;;;;;4892297;29;20258;-67
2022/12/25 12:21:27;;;;;;;4.28;4.07;;;7.30;99.90;;;;;;4898398;29;20293;-66
2022/12/25 12:23:57;;;;;;;13.73;4.10;;;7.40;99.90;;;;;;4894890;29;20667;-67
2022/12/25 12:26:26;;;;;;;3.05;2.78;;;7.40;99.90;;;;;;4897320;29;20463;-67
2022/12/25 12:28:56;;;;;;;3.92;3.63;;;7.40;99.90;;;;;;4897758;29;20289;-67
2022/12/25 12:31:23;;;;;;;4.15;3.10;;;7.40;99.90;;;;;;4897365;29;20739;-67
2022/12/25 12:33:53;;;;;;;3.03;2.67;;;7.40;99.90;;;;;;4896196;29;20214;-67
2022/12/25 12:36:21;;;;;;;3.92;3.42;;;7.40;99.90;;;;;;4896901;29;20229;-68
2022/12/25 12:38:49;;;;;;;2.45;2.03;;;7.40;99.90;;;;;;4895930;29;20318;-67
2022/12/25 12:41:17;;;;;;;3.50;2.75;;;7.40;99.90;;;;;;4897026;29;20230;-67
2022/12/25 12:43:47;;;;;;;3.70;3.42;;;7.50;99.90;;;;;;4897156;29;20645;-67
2022/12/25 12:46:19;;;;;;;4.25;2.45;;;7.40;99.90;;;;;;4897270;29;20214;-67
2022/12/25 12:48:47;;;;;;;5.13;3.05;;;7.40;99.90;;;;;;4885218;29;20281;-67
2022/12/25 12:51:26;;;;;;;6.45;3.15;;;7.40;99.90;;;;;;4890788;29;20241;-67
2022/12/25 12:54:16;;;;;;;4.32;3.25;;;7.40;99.90;;;;;;4896891;29;20262;-66
2022/12/25 12:56:42;;;;;;;4.78;4.45;;;7.40;99.90;;;;;;4894909;29;20241;-67
2022/12/25 12:59:10;;;;;;;3.47;2.50;;;7.40;99.90;;;;;;4896766;29;20206;-67
2022/12/25 13:01:51;;;;;;;5.85;2.60;;;7.40;99.90;;;;;;4896293;29;20248;-67
2022/12/25 13:04:32;;;;;;;4.55;4.15;;;7.40;99.90;;;;;;4896162;29;20592;-66
2022/12/25 13:07:05;;;;;;;7.35;3.30;;;7.40;99.90;;;;;;4896345;29;20198;-67
2022/12/25 13:09:43;;;;;;;5.68;3.28;;;7.40;99.90;;;;;;4890678;29;20282;-67
2022/12/25 13:12:13;;;;;;;3.10;3.00;;;7.40;99.90;;;;;;4892084;29;20293;-67
2022/12/25 13:14:45;;;;;;;9.27;4.13;;;7.30;99.90;;;;;;4894591;29;20214;-67
2022/12/25 13:17:17;;;;;;;6.65;3.50;;;7.40;99.90;;;;;;4887299;29;20230;-67
2022/12/25 13:19:45;;;;;;;2.75;2.53;;;7.40;99.90;;;;;;4891906;29;20217;-67
2022/12/25 13:22:24;;;;;;;4.68;2.83;;;7.40;99.90;;;;;;4896458;29;20285;-66
2022/12/25 13:24:56;;;;;;;3.03;2.65;;;7.40;99.90;;;;;;4897114;29;20305;-67
2022/12/25 13:27:24;;;;;;;7.00;3.85;;;7.40;99.90;;;;;;4898304;29;20273;-67
2022/12/25 13:29:51;;;;;;;11.57;4.03;;;7.40;99.90;;;;;;4898038;29;20692;-67
2022/12/25 13:32:23;;;;;;;2.60;2.40;;;7.40;99.90;;;;;;4896097;29;20230;-67
2022/12/25 13:34:51;;;;;;;2.83;2.67;;;7.30;99.90;;;;;;4897449;29;20212;-67
2022/12/25 13:37:20;;;;;;;3.03;2.78;;;7.30;99.90;;;;;;4898018;29;20241;-67
2022/12/25 13:39:50;;;;;;;3.83;3.53;;;7.30;99.90;;;;;;4895506;29;20216;-67
2022/12/25 13:42:19;;;;;;;5.97;4.03;;;7.30;99.90;;;;;;4896087;29;20268;-67
2022/12/25 13:44:49;;;;;;;17.27;4.20;;;7.30;99.90;;;;;;4896120;29;20213;-67
2022/12/25 13:47:22;;;;;;;4.85;3.72;;;7.30;99.90;;;;;;4892811;29;20694;-68
2022/12/25 13:49:50;;;;;;;22.08;4.45;;;7.30;99.90;;;;;;4892817;29;20384;-67
2022/12/25 13:52:20;;;;;;;2.28;2.17;;;7.30;99.90;;;;;;4895924;29;20297;-67
2022/12/25 13:55:01;;;;;;;8.98;2.38;;;7.30;99.90;;;;;;4895448;29;20209;-66
2022/12/25 13:57:31;;;;;;;2.22;2.13;;;7.30;99.90;;;;;;4895850;29;20237;-67
2022/12/25 13:59:59;;;;;;;10.63;4.22;;;7.30;99.90;;;;;;4894478;29;20746;-65
2022/12/25 14:02:31;;;;;;;2.25;2.15;;;7.30;99.90;;;;;;4895676;29;20241;-67
2022/12/25 14:04:58;;;;;;;10.32;3.88;;;7.30;99.90;;;;;;4902200;29;20299;-67
2022/12/25 14:07:25;;;;;;;1.95;1.95;;;7.30;99.90;;;;;;4895782;29;20220;-66
2022/12/25 14:09:57;;;;;;;10.02;3.38;;;7.30;99.90;;;;;;4895393;29;20207;-67
2022/12/25 14:12:24;;;;;;;3.35;3.08;;;7.30;99.90;;;;;;4895692;29;20385;-66
2022/12/25 14:14:52;;;;;;;11.40;6.55;;;7.30;99.90;;;;;;4893693;29;20221;-67
2022/12/25 14:17:19;;;;;;;8.98;4.50;;;7.30;99.90;;;;;;4891272;29;20315;-67
2022/12/25 14:19:56;;;;;;;5.95;3.35;;;7.30;99.90;;;;;;4895704;29;20284;-67
2022/12/25 14:22:23;;;;;;;3.55;3.40;;;7.30;99.90;;;;;;4889759;29;20232;-67
2022/12/25 14:24:50;;;;;;;8.93;3.50;;;7.30;99.90;;;;;;4896475;29;20556;-66
2022/12/25 14:27:20;;;;;;;3.60;2.88;;;7.30;99.90;;;;;;4895603;29;20269;-65
2022/12/25 14:29:49;;;;;;;2.80;2.60;;;7.30;99.90;;;;;;4896613;29;20212;-67
2022/12/25 14:32:18;;;;;;;7.82;3.90;;;7.30;99.90;;;;;;4897089;29;20237;-65
2022/12/25 14:34:48;;;;;;;2.38;2.28;;;7.30;99.90;;;;;;4895236;29;20739;-67
2022/12/25 14:37:17;;;;;;;1.70;1.60;;;7.30;99.90;;;;;;4895698;29;20794;-66
2022/12/25 14:39:46;;;;;;;4.68;2.13;;;7.40;99.90;;;;;;4895318;29;20206;-66
2022/12/25 14:42:19;;;;;;;6.55;2.42;;;7.30;99.90;;;;;;4886160;29;20233;-67
2022/12/25 14:44:57;;;;;;;9.75;3.55;;;7.30;99.90;;;;;;4895329;29;20300;-67
2022/12/25 14:47:24;;;;;;;4.88;4.38;;;7.40;99.90;;;;;;4895546;29;20639;-67
2022/12/25 14:49:53;;;;;;;3.28;2.45;;;7.30;99.90;;;;;;4894259;29;20242;-67
2022/12/25 14:52:23;;;;;;;7.30;3.30;;;7.30;99.90;;;;;;4898210;29;20222;-67
2022/12/25 14:54:52;;;;;;;3.17;2.25;;;7.40;99.90;;;;;;4892972;29;20273;-68
2022/12/25 14:57:25;;;;;;;2.67;2.35;;;7.40;99.90;;;;;;4901063;29;20232;-68
2022/12/25 15:00:05;;;;;;;2.25;1.48;;;7.40;99.90;;;;;;4898343;29;20264;-67
2022/12/25 15:02:42;;;;;;;3.47;3.25;;;7.40;99.90;;;;;;4900313;29;20573;-67
2022/12/25 15:05:32;;;;;;;2.88;2.20;;;7.40;99.90;;;;;;4894851;29;20214;-68
2022/12/25 15:08:21;;;;;;;7.30;3.30;;;7.40;99.90;;;;;;4895371;29;20306;-67
2022/12/25 15:10:49;;;;;;;2.83;2.63;;;7.40;99.90;;;;;;4895512;29;20237;-67
2022/12/25 15:13:19;;;;;;;1.75;1.65;;;7.40;99.90;;;;;;4891159;29;20312;-66
2022/12/25 15:15:57;;;;;;;6.03;3.80;;;7.30;99.90;;;;;;4897858;29;20221;-67
2022/12/25 15:18:26;;;;;;;3.05;2.42;;;7.30;99.90;;;;;;4890496;29;20264;-68
2022/12/25 15:20:55;;;;;;;4.85;2.75;;;7.30;99.90;;;;;;4893579;29;20278;-67
2022/12/25 15:23:21;;;;;;;1.90;1.67;;;7.20;99.90;;;;;;4894235;29;20208;-68
2022/12/25 15:25:49;;;;;;;2.25;2.05;;;7.30;99.90;;;;;;4890292;29;20615;-68
2022/12/25 15:28:16;;;;;;;5.93;1.80;;;7.20;99.90;;;;;;4896771;29;20205;-68
2022/12/25 15:30:43;;;;;;;2.92;2.72;;;7.20;99.90;;;;;;4896426;29;20284;-67
2022/12/25 15:33:13;;;;;;;2.63;2.42;;;7.20;99.90;;;;;;4901730;29;20749;-68
2022/12/25 15:35:40;;;;;;;3.05;1.77;;;7.20;99.90;;;;;;4900365;29;20240;-68
2022/12/25 15:38:08;;;;;;;4.68;3.42;;;7.20;99.90;;;;;;4897805;29;20244;-68
2022/12/25 15:40:35;;;;;;;2.08;2.00;;;7.20;99.90;;;;;;4905426;29;20221;-68
2022/12/25 15:43:01;;;;;;;2.10;1.27;;;7.20;99.90;;;;;;4898099;29;20687;-68
2022/12/25 15:45:29;;;;;;;2.58;2.38;;;7.20;99.90;;;;;;4898454;29;20221;-68
2022/12/25 15:47:56;;;;;;;2.55;2.35;;;7.20;99.90;;;;;;4896532;29;20293;-67
2022/12/25 15:50:23;;;;;;;2.47;2.10;;;7.20;99.90;;;;;;4898243;29;20224;-68
2022/12/25 15:52:50;;;;;;;8.50;4.90;;;7.20;99.90;;;;;;4902712;29;20208;-68
2022/12/25 15:55:18;;;;;;;2.95;2.75;;;7.20;99.90;;;;;;4889237;29;20218;-69
2022/12/25 15:57:47;;;;;;;1.20;1.10;;;7.20;99.90;;;;;;4893988;29;20698;-69
2022/12/25 16:00:17;;;;;;;8.13;2.85;;;7.20;99.90;;;;;;4898938;29;20209;-67
2022/12/25 16:02:44;;;;;;;2.10;2.00;;;7.20;99.90;;;;;;4897963;29;20283;-68
2022/12/25 16:05:11;;;;;;;2.60;2.50;;;7.20;99.90;;;;;;4898724;29;20209;-67
2022/12/25 16:07:38;;;;;;;9.40;3.97;;;7.30;99.90;;;;;;4903626;29;20293;-68
2022/12/25 16:10:07;;;;;;;4.75;2.42;;;7.20;99.90;;;;;;4898628;29;20261;-68
2022/12/25 16:12:37;;;;;;;4.13;1.55;;;7.20;99.90;;;;;;4905064;29;20259;-66
2022/12/25 16:15:05;;;;;;;3.15;2.85;;;7.20;99.90;;;;;;4903987;29;20221;-67
2022/12/25 16:17:31;;;;;;;3.78;2.38;;;7.20;99.90;;;;;;4897202;29;20237;-68
2022/12/25 16:19:58;;;;;;;6.35;2.35;;;7.20;99.90;;;;;;4895873;29;20216;-67
2022/12/25 16:22:25;;;;;;;7.80;3.80;;;7.20;99.90;;;;;;4902909;29;20233;-67
2022/12/25 16:24:52;;;;;;;5.05;4.75;;;7.20;99.90;;;;;;4897660;29;20210;-68
2022/12/25 16:27:19;;;;;;;4.20;3.35;;;7.30;99.90;;;;;;4897065;29;20213;-68
2022/12/25 16:29:47;;;;;;;6.00;4.30;;;7.30;99.90;;;;;;4909235;29;20622;-68
2022/12/25 16:32:15;;;;;;;2.65;2.55;;;7.20;99.90;;;;;;4894940;29;20293;-68
2022/12/25 16:34:43;;;;;;;4.43;4.22;;;7.30;99.90;;;;;;4895234;29;20214;-68
2022/12/25 16:37:10;;;;;;;5.95;3.42;;;7.20;99.90;;;;;;4897901;29;20308;-68
2022/12/25 16:39:36;;;;;;;5.93;2.30;;;7.30;99.90;;;;;;4896472;29;20285;-67
2022/12/25 16:42:03;;;;;;;6.50;3.90;;;7.20;99.90;;;;;;4897884;29;20303;-67
2022/12/25 16:44:30;;;;;;;3.90;3.75;;;7.30;99.90;;;;;;4889664;29;20651;-68
2022/12/25 16:46:58;;;;;;;4.65;3.33;;;7.30;99.90;;;;;;4893891;29;20257;-65
2022/12/25 16:49:24;;;;;;;8.38;2.28;;;7.30;99.90;;;;;;4898380;29;20212;-68
2022/12/25 16:51:51;;;;;;;3.65;2.47;;;7.20;99.90;;;;;;4896133;29;20253;-67
2022/12/25 16:54:18;;;;;;;5.28;3.20;;;7.20;99.90;;;;;;4892695;29;20235;-68
2022/12/25 16:56:44;;;;;;;6.60;3.50;;;7.30;99.90;;;;;;4892532;29;20206;-68
2022/12/25 16:59:11;;;;;;;7.30;3.53;;;7.30;99.90;;;;;;4900613;29;20273;-67
2022/12/25 17:01:41;;;;;;;2.65;2.28;;;7.30;99.90;;;;;;4903673;29;20608;-68
2022/12/25 17:04:09;;;;;;;4.57;1.90;;;7.30;99.90;;;;;;4898417;29;20414;-68
2022/12/25 17:06:37;;;;;;;6.75;3.90;;;7.30;99.90;;;;;;4897015;29;20221;-68
2022/12/25 17:09:04;;;;;;;2.65;2.47;;;7.30;99.90;;;;;;4895910;29;20215;-68
2022/12/25 17:11:31;;;;;;;2.17;1.77;;;7.30;99.90;;;;;;4896689;29;20229;-68
2022/12/25 17:14:00;;;;;;;7.13;4.60;;;7.30;99.90;;;;;;4896053;29;20244;-68
2022/12/25 17:16:29;;;;;;;2.65;1.38;;;7.30;99.90;;;;;;4897593;29;20217;-68
2022/12/25 17:19:00;;;;;;;6.20;3.38;;;7.30;99.90;;;;;;4903323;29;20237;-67
2022/12/25 17:21:28;;;;;;;5.20;3.63;;;7.30;99.90;;;;;;4887802;29;20269;-68
2022/12/25 17:23:56;;;;;;;3.25;3.08;;;7.30;99.90;;;;;;4908393;23;20297;-66
2022/12/25 17:26:23;;;;;;;3.45;3.28;;;7.30;99.90;;;;;;4906988;29;20215;-66
2022/12/25 17:28:50;;;;;;;2.08;1.98;;;7.30;99.90;;;;;;4908570;29;20287;-68
2022/12/25 17:31:17;;;;;;;4.47;2.90;;;7.30;99.90;;;;;;4909563;29;20646;-67
2022/12/25 17:33:44;;;;;;;3.78;3.60;;;7.30;99.90;;;;;;4904015;29;20229;-67
2022/12/25 17:36:13;;;;;;;3.47;2.85;;;7.30;99.90;;;;;;4904023;29;20264;-67
2022/12/25 17:38:41;;;;;;;8.15;6.10;;;7.30;99.90;;;;;;4896511;29;20241;-67
2022/12/25 17:41:11;;;;;;;5.50;5.07;;;7.40;99.90;;;;;;4887398;29;20326;-67
2022/12/25 17:43:39;;;;;;;7.78;4.03;;;7.40;99.90;;;;;;4894686;29;20246;-67
2022/12/25 17:46:07;;;;;;;5.93;4.00;;;7.40;99.90;;;;;;4897104;29;20217;-67
2022/12/25 17:48:35;;;;;;;4.00;3.63;;;7.40;99.90;;;;;;4892577;29;20256;-67
2022/12/25 17:51:02;;;;;;;3.22;2.92;;;7.40;99.90;;;;;;4901791;29;20300;-68
2022/12/25 17:53:29;;;;;;;3.15;3.05;;;7.40;99.90;;;;;;4900873;29;20239;-67
2022/12/25 17:55:58;;;;;;;8.27;5.30;;;7.40;99.90;;;;;;4897198;29;20221;-67
2022/12/25 17:58:25;;;;;;;2.97;2.70;;;7.40;99.90;;;;;;4898247;29;20237;-67
2022/12/25 18:00:52;;;;;;;4.28;3.97;;;7.50;99.90;;;;;;4902665;29;20206;-68
2022/12/25 18:03:19;;;;;;;5.38;5.00;;;7.40;99.90;;;;;;4894460;29;20233;-68
2022/12/25 18:05:47;;;;;;;4.15;3.70;;;7.40;99.90;;;;;;4892342;29;20234;-68